sensor_id;sensor_type;location;lat;lon;timestamp;P1;durP1;ratioP1;P2;durP2;ratioP2
69414;SDS011;56608;43.530;-5.652;2023-04-22T00:00:01;21.20;;;13.68;;
69414;SDS011;56608;43.530;-5.652;2023-04-22T00:02:03;21.80;;;13.40;;
69414;SDS011;56608;43.530;-5.652;2023-04-22T00:03:04;21.60;;;13.90;;
69414;SDS011;56608;43.530;-5.652;2023-04-22T00:04:08;19.40;;;13.20;;
69414;SDS011;56608;43.530;-5.652;2023-04-22T00:05:09;17.35;;;12.48;;
69414;SDS011;56608;43.530;-5.652;2023-04-22T00:06:13;21.80;;;14.35;;
69414;SDS011;56608;43.530;-5.652;2023-04-22T00:07:15;20.52;;;13.35;;
69414;SDS011;56608;43.530;-5.652;2023-04-22T00:08:17;20.95;;;13.65;;
69414;SDS011;56608;43.530;-5.652;2023-04-22T00:09:18;21.25;;;13.25;;
69414;SDS011;56608;43.530;-5.652;2023-04-22T00:10:20;20.30;;;13.50;;
69414;SDS011;56608;43.530;-5.652;2023-04-22T00:11:21;18.10;;;13.20;;
69414;SDS011;56608;43.530;-5.652;2023-04-22T00:12:23;17.90;;;12.60;;
69414;SDS011;56608;43.530;-5.652;2023-04-22T00:13:25;20.45;;;12.70;;
69414;SDS011;56608;43.530;-5.652;2023-04-22T00:14:26;22.62;;;13.68;;
69414;SDS011;56608;43.530;-5.652;2023-04-22T00:15:28;19.58;;;13.20;;
69414;SDS011;56608;43.530;-5.652;2023-04-22T00:16:29;18.00;;;12.40;;
69414;SDS011;56608;43.530;-5.652;2023-04-22T00:17:31;20.27;;;13.00;;
69414;SDS011;56608;43.530;-5.652;2023-04-22T00:18:33;20.10;;;13.00;;
69414;SDS011;56608;43.530;-5.652;2023-04-22T00:19:36;20.15;;;13.45;;
69414;SDS011;56608;43.530;-5.652;2023-04-22T00:20:37;20.33;;;12.77;;
69414;SDS011;56608;43.530;-5.652;2023-04-22T00:21:39;20.62;;;13.50;;
69414;SDS011;56608;43.530;-5.652;2023-04-22T00:22:39;18.37;;;12.30;;
69414;SDS011;56608;43.530;-5.652;2023-04-22T00:23:41;18.90;;;12.90;;
69414;SDS011;56608;43.530;-5.652;2023-04-22T00:24:45;20.45;;;13.05;;
69414;SDS011;56608;43.530;-5.652;2023-04-22T00:25:46;20.62;;;14.57;;
69414;SDS011;56608;43.530;-5.652;2023-04-22T00:26:47;19.60;;;12.50;;
69414;SDS011;56608;43.530;-5.652;2023-04-22T00:27:49;19.75;;;13.07;;
69414;SDS011;56608;43.530;-5.652;2023-04-22T00:28:50;16.33;;;12.45;;
69414;SDS011;56608;43.530;-5.652;2023-04-22T00:29:52;19.70;;;13.05;;
69414;SDS011;56608;43.530;-5.652;2023-04-22T00:30:53;18.45;;;12.93;;
69414;SDS011;56608;43.530;-5.652;2023-04-22T00:31:54;18.40;;;12.00;;
69414;SDS011;56608;43.530;-5.652;2023-04-22T00:32:55;18.10;;;11.85;;
69414;SDS011;56608;43.530;-5.652;2023-04-22T00:33:57;16.48;;;11.82;;
69414;SDS011;56608;43.530;-5.652;2023-04-22T00:34:58;17.05;;;11.25;;
69414;SDS011;56608;43.530;-5.652;2023-04-22T00:36:00;17.48;;;11.18;;
69414;SDS011;56608;43.530;-5.652;2023-04-22T00:37:01;17.50;;;11.20;;
69414;SDS011;56608;43.530;-5.652;2023-04-22T00:38:01;17.30;;;11.50;;
69414;SDS011;56608;43.530;-5.652;2023-04-22T00:39:03;14.75;;;11.00;;
69414;SDS011;56608;43.530;-5.652;2023-04-22T00:40:06;14.10;;;10.10;;
69414;SDS011;56608;43.530;-5.652;2023-04-22T00:41:08;14.40;;;10.70;;
69414;SDS011;56608;43.530;-5.652;2023-04-22T00:42:10;15.23;;;10.37;;
69414;SDS011;56608;43.530;-5.652;2023-04-22T00:43:12;15.10;;;10.05;;
69414;SDS011;56608;43.530;-5.652;2023-04-22T00:44:14;13.40;;;8.80;;
69414;SDS011;56608;43.530;-5.652;2023-04-22T00:45:17;14.55;;;9.57;;
69414;SDS011;56608;43.530;-5.652;2023-04-22T00:46:19;15.60;;;9.70;;
69414;SDS011;56608;43.530;-5.652;2023-04-22T00:47:21;14.13;;;8.82;;
69414;SDS011;56608;43.530;-5.652;2023-04-22T00:48:26;12.65;;;8.45;;
69414;SDS011;56608;43.530;-5.652;2023-04-22T00:49:28;12.40;;;8.80;;
69414;SDS011;56608;43.530;-5.652;2023-04-22T00:50:30;14.50;;;9.47;;
69414;SDS011;56608;43.530;-5.652;2023-04-22T00:51:32;12.45;;;8.85;;
69414;SDS011;56608;43.530;-5.652;2023-04-22T00:52:33;14.40;;;8.75;;
69414;SDS011;56608;43.530;-5.652;2023-04-22T00:53:33;13.05;;;8.65;;
69414;SDS011;56608;43.530;-5.652;2023-04-22T00:54:35;11.68;;;8.95;;
69414;SDS011;56608;43.530;-5.652;2023-04-22T00:55:36;13.80;;;10.50;;
69414;SDS011;56608;43.530;-5.652;2023-04-22T00:56:38;14.45;;;9.70;;
69414;SDS011;56608;43.530;-5.652;2023-04-22T00:57:39;15.93;;;10.03;;
69414;SDS011;56608;43.530;-5.652;2023-04-22T00:58:40;14.85;;;8.65;;
69414;SDS011;56608;43.530;-5.652;2023-04-22T00:59:42;14.75;;;9.07;;
69414;SDS011;56608;43.530;-5.652;2023-04-22T01:00:44;13.40;;;8.70;;
69414;SDS011;56608;43.530;-5.652;2023-04-22T01:01:45;10.95;;;7.60;;
69414;SDS011;56608;43.530;-5.652;2023-04-22T01:02:47;11.00;;;8.10;;
69414;SDS011;56608;43.530;-5.652;2023-04-22T01:03:48;11.40;;;7.60;;
69414;SDS011;56608;43.530;-5.652;2023-04-22T01:04:52;11.45;;;7.40;;
69414;SDS011;56608;43.530;-5.652;2023-04-22T01:05:56;10.10;;;6.50;;
69414;SDS011;56608;43.530;-5.652;2023-04-22T01:07:59;9.98;;;6.32;;
69414;SDS011;56608;43.530;-5.652;2023-04-22T01:08:59;12.30;;;6.10;;
69414;SDS011;56608;43.530;-5.652;2023-04-22T01:10:02;9.40;;;6.60;;
69414;SDS011;56608;43.530;-5.652;2023-04-22T01:11:04;12.55;;;8.00;;
69414;SDS011;56608;43.530;-5.652;2023-04-22T01:12:05;11.63;;;7.32;;
69414;SDS011;56608;43.530;-5.652;2023-04-22T01:13:07;8.90;;;6.80;;
69414;SDS011;56608;43.530;-5.652;2023-04-22T01:14:09;9.15;;;6.80;;
69414;SDS011;56608;43.530;-5.652;2023-04-22T01:15:09;8.00;;;6.20;;
69414;SDS011;56608;43.530;-5.652;2023-04-22T01:16:11;8.60;;;6.77;;
69414;SDS011;56608;43.530;-5.652;2023-04-22T01:17:12;8.30;;;6.40;;
69414;SDS011;56608;43.530;-5.652;2023-04-22T01:18:14;8.25;;;6.65;;
69414;SDS011;56608;43.530;-5.652;2023-04-22T01:19:15;9.13;;;6.45;;
69414;SDS011;56608;43.530;-5.652;2023-04-22T01:20:17;9.60;;;6.68;;
69414;SDS011;56608;43.530;-5.652;2023-04-22T01:21:19;10.60;;;6.63;;
69414;SDS011;56608;43.530;-5.652;2023-04-22T01:22:20;7.68;;;6.55;;
69414;SDS011;56608;43.530;-5.652;2023-04-22T01:23:22;10.65;;;6.40;;
69414;SDS011;56608;43.530;-5.652;2023-04-22T01:24:24;9.60;;;7.20;;
69414;SDS011;56608;43.530;-5.652;2023-04-22T01:25:26;10.00;;;5.95;;
69414;SDS011;56608;43.530;-5.652;2023-04-22T01:26:27;9.27;;;6.03;;
69414;SDS011;56608;43.530;-5.652;2023-04-22T01:27:29;8.73;;;6.35;;
69414;SDS011;56608;43.530;-5.652;2023-04-22T01:28:31;8.23;;;5.90;;
69414;SDS011;56608;43.530;-5.652;2023-04-22T01:30:32;10.90;;;6.60;;
69414;SDS011;56608;43.530;-5.652;2023-04-22T01:31:35;9.00;;;6.55;;
69414;SDS011;56608;43.530;-5.652;2023-04-22T01:32:38;10.27;;;6.73;;
69414;SDS011;56608;43.530;-5.652;2023-04-22T01:33:40;9.03;;;6.73;;
69414;SDS011;56608;43.530;-5.652;2023-04-22T01:34:42;10.05;;;6.65;;
69414;SDS011;56608;43.530;-5.652;2023-04-22T01:35:43;10.10;;;6.30;;
69414;SDS011;56608;43.530;-5.652;2023-04-22T01:36:45;10.40;;;6.07;;
69414;SDS011;56608;43.530;-5.652;2023-04-22T01:37:46;11.60;;;6.65;;
69414;SDS011;56608;43.530;-5.652;2023-04-22T01:38:47;8.55;;;6.07;;
69414;SDS011;56608;43.530;-5.652;2023-04-22T01:39:49;8.07;;;5.82;;
69414;SDS011;56608;43.530;-5.652;2023-04-22T01:40:50;11.27;;;6.45;;
69414;SDS011;56608;43.530;-5.652;2023-04-22T01:42:53;8.25;;;5.35;;
69414;SDS011;56608;43.530;-5.652;2023-04-22T01:43:54;9.70;;;5.93;;
69414;SDS011;56608;43.530;-5.652;2023-04-22T01:44:58;8.38;;;6.07;;
69414;SDS011;56608;43.530;-5.652;2023-04-22T01:45:59;8.98;;;5.78;;
69414;SDS011;56608;43.530;-5.652;2023-04-22T01:47:01;7.17;;;5.10;;
69414;SDS011;56608;43.530;-5.652;2023-04-22T01:48:03;9.63;;;5.75;;
69414;SDS011;56608;43.530;-5.652;2023-04-22T01:49:06;6.97;;;4.95;;
69414;SDS011;56608;43.530;-5.652;2023-04-22T01:50:08;8.95;;;4.60;;
69414;SDS011;56608;43.530;-5.652;2023-04-22T01:51:09;7.20;;;4.80;;
69414;SDS011;56608;43.530;-5.652;2023-04-22T01:52:11;8.20;;;5.03;;
69414;SDS011;56608;43.530;-5.652;2023-04-22T01:53:13;6.75;;;4.50;;
69414;SDS011;56608;43.530;-5.652;2023-04-22T01:54:14;6.70;;;4.80;;
69414;SDS011;56608;43.530;-5.652;2023-04-22T01:56:16;8.20;;;4.60;;
69414;SDS011;56608;43.530;-5.652;2023-04-22T01:57:18;8.17;;;4.80;;
69414;SDS011;56608;43.530;-5.652;2023-04-22T01:58:19;6.93;;;5.00;;
69414;SDS011;56608;43.530;-5.652;2023-04-22T01:59:21;7.95;;;4.40;;
69414;SDS011;56608;43.530;-5.652;2023-04-22T02:00:22;6.85;;;4.37;;
69414;SDS011;56608;43.530;-5.652;2023-04-22T02:01:23;8.75;;;4.80;;
69414;SDS011;56608;43.530;-5.652;2023-04-22T02:02:25;6.15;;;4.45;;
69414;SDS011;56608;43.530;-5.652;2023-04-22T02:03:25;5.80;;;4.20;;
69414;SDS011;56608;43.530;-5.652;2023-04-22T02:04:27;8.18;;;4.70;;
69414;SDS011;56608;43.530;-5.652;2023-04-22T02:05:29;7.55;;;4.47;;
69414;SDS011;56608;43.530;-5.652;2023-04-22T02:06:30;6.40;;;4.25;;
69414;SDS011;56608;43.530;-5.652;2023-04-22T02:08:33;6.15;;;3.92;;
69414;SDS011;56608;43.530;-5.652;2023-04-22T02:09:34;7.80;;;4.07;;
69414;SDS011;56608;43.530;-5.652;2023-04-22T02:10:36;4.95;;;4.00;;
69414;SDS011;56608;43.530;-5.652;2023-04-22T02:11:37;7.25;;;4.15;;
69414;SDS011;56608;43.530;-5.652;2023-04-22T02:12:38;7.75;;;4.62;;
69414;SDS011;56608;43.530;-5.652;2023-04-22T02:13:40;6.82;;;4.37;;
69414;SDS011;56608;43.530;-5.652;2023-04-22T02:14:41;6.85;;;4.45;;
69414;SDS011;56608;43.530;-5.652;2023-04-22T02:15:43;7.05;;;4.30;;
69414;SDS011;56608;43.530;-5.652;2023-04-22T02:16:44;7.55;;;4.68;;
69414;SDS011;56608;43.530;-5.652;2023-04-22T02:17:45;7.15;;;3.70;;
69414;SDS011;56608;43.530;-5.652;2023-04-22T02:18:47;10.80;;;4.20;;
69414;SDS011;56608;43.530;-5.652;2023-04-22T02:19:48;11.70;;;3.62;;
69414;SDS011;56608;43.530;-5.652;2023-04-22T02:21:51;7.37;;;3.62;;
69414;SDS011;56608;43.530;-5.652;2023-04-22T02:22:52;5.03;;;3.53;;
69414;SDS011;56608;43.530;-5.652;2023-04-22T02:23:54;6.50;;;3.45;;
69414;SDS011;56608;43.530;-5.652;2023-04-22T02:24:55;12.80;;;3.78;;
69414;SDS011;56608;43.530;-5.652;2023-04-22T02:25:57;5.65;;;4.05;;
69414;SDS011;56608;43.530;-5.652;2023-04-22T02:26:58;5.62;;;4.03;;
69414;SDS011;56608;43.530;-5.652;2023-04-22T02:28:00;8.07;;;3.87;;
69414;SDS011;56608;43.530;-5.652;2023-04-22T02:29:01;6.53;;;3.80;;
69414;SDS011;56608;43.530;-5.652;2023-04-22T02:30:03;4.43;;;3.65;;
69414;SDS011;56608;43.530;-5.652;2023-04-22T02:32:05;4.70;;;3.80;;
69414;SDS011;56608;43.530;-5.652;2023-04-22T02:33:06;5.65;;;3.50;;
69414;SDS011;56608;43.530;-5.652;2023-04-22T02:34:07;5.37;;;3.33;;
69414;SDS011;56608;43.530;-5.652;2023-04-22T02:35:09;6.20;;;3.70;;
69414;SDS011;56608;43.530;-5.652;2023-04-22T02:36:11;6.22;;;3.00;;
69414;SDS011;56608;43.530;-5.652;2023-04-22T02:37:12;5.43;;;3.90;;
69414;SDS011;56608;43.530;-5.652;2023-04-22T02:38:14;5.97;;;3.40;;
69414;SDS011;56608;43.530;-5.652;2023-04-22T02:39:14;6.00;;;3.40;;
69414;SDS011;56608;43.530;-5.652;2023-04-22T02:40:16;5.78;;;3.40;;
69414;SDS011;56608;43.530;-5.652;2023-04-22T02:41:18;4.95;;;3.42;;
69414;SDS011;56608;43.530;-5.652;2023-04-22T02:42:18;6.60;;;3.90;;
69414;SDS011;56608;43.530;-5.652;2023-04-22T02:43:20;5.72;;;3.62;;
69414;SDS011;56608;43.530;-5.652;2023-04-22T02:44:21;4.20;;;3.30;;
69414;SDS011;56608;43.530;-5.652;2023-04-22T02:45:23;5.85;;;3.80;;
69414;SDS011;56608;43.530;-5.652;2023-04-22T02:46:24;6.85;;;4.20;;
69414;SDS011;56608;43.530;-5.652;2023-04-22T02:47:24;6.40;;;4.10;;
69414;SDS011;56608;43.530;-5.652;2023-04-22T02:48:26;6.15;;;3.80;;
69414;SDS011;56608;43.530;-5.652;2023-04-22T02:49:28;6.18;;;4.40;;
69414;SDS011;56608;43.530;-5.652;2023-04-22T02:50:29;5.65;;;3.78;;
69414;SDS011;56608;43.530;-5.652;2023-04-22T02:51:31;4.50;;;3.95;;
69414;SDS011;56608;43.530;-5.652;2023-04-22T02:53:34;7.35;;;4.35;;
69414;SDS011;56608;43.530;-5.652;2023-04-22T02:54:35;6.72;;;3.97;;
69414;SDS011;56608;43.530;-5.652;2023-04-22T02:55:39;5.80;;;3.70;;
69414;SDS011;56608;43.530;-5.652;2023-04-22T02:56:41;5.43;;;3.90;;
69414;SDS011;56608;43.530;-5.652;2023-04-22T02:57:43;5.78;;;4.05;;
69414;SDS011;56608;43.530;-5.652;2023-04-22T02:58:44;6.32;;;3.80;;
69414;SDS011;56608;43.530;-5.652;2023-04-22T02:59:45;6.30;;;3.70;;
69414;SDS011;56608;43.530;-5.652;2023-04-22T03:00:47;5.28;;;3.58;;
69414;SDS011;56608;43.530;-5.652;2023-04-22T03:01:48;8.35;;;3.72;;
69414;SDS011;56608;43.530;-5.652;2023-04-22T03:02:49;5.50;;;3.45;;
69414;SDS011;56608;43.530;-5.652;2023-04-22T03:03:51;6.00;;;3.35;;
69414;SDS011;56608;43.530;-5.652;2023-04-22T03:04:52;5.05;;;3.60;;
69414;SDS011;56608;43.530;-5.652;2023-04-22T03:05:54;5.43;;;3.58;;
69414;SDS011;56608;43.530;-5.652;2023-04-22T03:06:55;4.97;;;2.97;;
69414;SDS011;56608;43.530;-5.652;2023-04-22T03:07:57;4.63;;;3.27;;
69414;SDS011;56608;43.530;-5.652;2023-04-22T03:08:58;5.70;;;3.70;;
69414;SDS011;56608;43.530;-5.652;2023-04-22T03:09:59;6.37;;;3.70;;
69414;SDS011;56608;43.530;-5.652;2023-04-22T03:11:01;6.03;;;3.45;;
69414;SDS011;56608;43.530;-5.652;2023-04-22T03:12:02;5.35;;;3.65;;
69414;SDS011;56608;43.530;-5.652;2023-04-22T03:13:04;5.57;;;3.53;;
69414;SDS011;56608;43.530;-5.652;2023-04-22T03:14:05;4.27;;;3.63;;
69414;SDS011;56608;43.530;-5.652;2023-04-22T03:15:07;3.90;;;3.40;;
69414;SDS011;56608;43.530;-5.652;2023-04-22T03:17:09;5.30;;;3.60;;
69414;SDS011;56608;43.530;-5.652;2023-04-22T03:18:11;7.25;;;3.90;;
69414;SDS011;56608;43.530;-5.652;2023-04-22T03:19:11;5.70;;;3.70;;
69414;SDS011;56608;43.530;-5.652;2023-04-22T03:20:13;5.87;;;3.85;;
69414;SDS011;56608;43.530;-5.652;2023-04-22T03:22:16;4.95;;;3.70;;
69414;SDS011;56608;43.530;-5.652;2023-04-22T03:23:17;4.70;;;3.83;;
69414;SDS011;56608;43.530;-5.652;2023-04-22T03:24:19;7.25;;;4.20;;
69414;SDS011;56608;43.530;-5.652;2023-04-22T03:25:20;8.27;;;3.72;;
69414;SDS011;56608;43.530;-5.652;2023-04-22T03:26:21;7.30;;;4.00;;
69414;SDS011;56608;43.530;-5.652;2023-04-22T03:27:23;7.28;;;4.00;;
69414;SDS011;56608;43.530;-5.652;2023-04-22T03:28:25;6.03;;;4.18;;
69414;SDS011;56608;43.530;-5.652;2023-04-22T03:29:26;6.93;;;4.07;;
69414;SDS011;56608;43.530;-5.652;2023-04-22T03:30:27;9.68;;;4.07;;
69414;SDS011;56608;43.530;-5.652;2023-04-22T03:31:29;6.62;;;3.72;;
69414;SDS011;56608;43.530;-5.652;2023-04-22T03:32:30;7.33;;;4.00;;
69414;SDS011;56608;43.530;-5.652;2023-04-22T03:33:31;6.93;;;3.95;;
69414;SDS011;56608;43.530;-5.652;2023-04-22T03:34:32;7.30;;;4.20;;
69414;SDS011;56608;43.530;-5.652;2023-04-22T03:35:34;10.38;;;4.30;;
69414;SDS011;56608;43.530;-5.652;2023-04-22T03:36:35;7.10;;;3.87;;
69414;SDS011;56608;43.530;-5.652;2023-04-22T03:37:37;5.53;;;4.10;;
69414;SDS011;56608;43.530;-5.652;2023-04-22T03:38:38;5.35;;;4.00;;
69414;SDS011;56608;43.530;-5.652;2023-04-22T03:39:39;5.95;;;4.03;;
69414;SDS011;56608;43.530;-5.652;2023-04-22T03:40:41;7.97;;;4.10;;
69414;SDS011;56608;43.530;-5.652;2023-04-22T03:41:43;7.35;;;4.90;;
69414;SDS011;56608;43.530;-5.652;2023-04-22T03:42:44;11.18;;;5.32;;
69414;SDS011;56608;43.530;-5.652;2023-04-22T03:43:45;9.40;;;5.43;;
69414;SDS011;56608;43.530;-5.652;2023-04-22T03:44:46;8.67;;;5.33;;
69414;SDS011;56608;43.530;-5.652;2023-04-22T03:45:49;6.25;;;5.07;;
69414;SDS011;56608;43.530;-5.652;2023-04-22T03:46:51;9.85;;;5.20;;
69414;SDS011;56608;43.530;-5.652;2023-04-22T03:47:52;10.70;;;6.10;;
69414;SDS011;56608;43.530;-5.652;2023-04-22T03:48:53;11.10;;;5.72;;
69414;SDS011;56608;43.530;-5.652;2023-04-22T03:49:54;8.80;;;5.85;;
69414;SDS011;56608;43.530;-5.652;2023-04-22T03:50:56;9.18;;;5.78;;
69414;SDS011;56608;43.530;-5.652;2023-04-22T03:51:58;8.55;;;5.57;;
69414;SDS011;56608;43.530;-5.652;2023-04-22T03:52:58;7.45;;;5.60;;
69414;SDS011;56608;43.530;-5.652;2023-04-22T03:54:00;7.15;;;5.50;;
69414;SDS011;56608;43.530;-5.652;2023-04-22T03:55:02;8.85;;;5.65;;
69414;SDS011;56608;43.530;-5.652;2023-04-22T03:57:04;13.10;;;6.00;;
69414;SDS011;56608;43.530;-5.652;2023-04-22T03:58:06;10.80;;;5.97;;
69414;SDS011;56608;43.530;-5.652;2023-04-22T03:59:06;14.10;;;6.20;;
69414;SDS011;56608;43.530;-5.652;2023-04-22T04:00:08;10.07;;;6.18;;
69414;SDS011;56608;43.530;-5.652;2023-04-22T04:01:10;10.20;;;6.93;;
69414;SDS011;56608;43.530;-5.652;2023-04-22T04:02:11;13.00;;;7.30;;
69414;SDS011;56608;43.530;-5.652;2023-04-22T04:03:13;10.93;;;7.57;;
69414;SDS011;56608;43.530;-5.652;2023-04-22T04:04:14;11.65;;;6.95;;
69414;SDS011;56608;43.530;-5.652;2023-04-22T04:05:15;11.70;;;7.80;;
69414;SDS011;56608;43.530;-5.652;2023-04-22T04:06:17;8.82;;;6.60;;
69414;SDS011;56608;43.530;-5.652;2023-04-22T04:07:18;12.40;;;7.55;;
69414;SDS011;56608;43.530;-5.652;2023-04-22T04:09:21;10.40;;;7.57;;
69414;SDS011;56608;43.530;-5.652;2023-04-22T04:10:23;10.50;;;7.25;;
69414;SDS011;56608;43.530;-5.652;2023-04-22T04:11:24;11.85;;;7.65;;
69414;SDS011;56608;43.530;-5.652;2023-04-22T04:12:25;12.60;;;8.20;;
69414;SDS011;56608;43.530;-5.652;2023-04-22T04:13:27;10.57;;;7.57;;
69414;SDS011;56608;43.530;-5.652;2023-04-22T04:14:32;13.88;;;8.63;;
69414;SDS011;56608;43.530;-5.652;2023-04-22T04:15:33;13.93;;;8.57;;
69414;SDS011;56608;43.530;-5.652;2023-04-22T04:16:36;15.65;;;8.75;;
69414;SDS011;56608;43.530;-5.652;2023-04-22T04:17:38;14.73;;;9.50;;
69414;SDS011;56608;43.530;-5.652;2023-04-22T04:18:39;17.90;;;10.02;;
69414;SDS011;56608;43.530;-5.652;2023-04-22T04:19:41;18.20;;;10.20;;
69414;SDS011;56608;43.530;-5.652;2023-04-22T04:20:42;21.05;;;11.85;;
69414;SDS011;56608;43.530;-5.652;2023-04-22T04:21:43;15.93;;;11.60;;
69414;SDS011;56608;43.530;-5.652;2023-04-22T04:22:45;19.42;;;12.25;;
69414;SDS011;56608;43.530;-5.652;2023-04-22T04:23:46;19.70;;;12.65;;
69414;SDS011;56608;43.530;-5.652;2023-04-22T04:24:48;21.70;;;13.77;;
69414;SDS011;56608;43.530;-5.652;2023-04-22T04:25:49;19.30;;;13.60;;
69414;SDS011;56608;43.530;-5.652;2023-04-22T04:26:51;21.60;;;13.55;;
69414;SDS011;56608;43.530;-5.652;2023-04-22T04:27:53;28.60;;;14.90;;
69414;SDS011;56608;43.530;-5.652;2023-04-22T04:29:56;21.90;;;13.98;;
69414;SDS011;56608;43.530;-5.652;2023-04-22T04:30:58;21.35;;;13.35;;
69414;SDS011;56608;43.530;-5.652;2023-04-22T04:31:59;21.40;;;13.55;;
69414;SDS011;56608;43.530;-5.652;2023-04-22T04:33:01;22.15;;;14.10;;
69414;SDS011;56608;43.530;-5.652;2023-04-22T04:34:06;18.70;;;13.20;;
69414;SDS011;56608;43.530;-5.652;2023-04-22T04:35:08;19.70;;;13.88;;
69414;SDS011;56608;43.530;-5.652;2023-04-22T04:36:09;19.20;;;12.95;;
69414;SDS011;56608;43.530;-5.652;2023-04-22T04:37:11;21.20;;;13.25;;
69414;SDS011;56608;43.530;-5.652;2023-04-22T04:38:12;19.40;;;14.00;;
69414;SDS011;56608;43.530;-5.652;2023-04-22T04:40:17;19.70;;;12.27;;
69414;SDS011;56608;43.530;-5.652;2023-04-22T04:41:19;17.70;;;11.65;;
69414;SDS011;56608;43.530;-5.652;2023-04-22T04:42:21;18.77;;;12.50;;
69414;SDS011;56608;43.530;-5.652;2023-04-22T04:43:24;21.23;;;12.55;;
69414;SDS011;56608;43.530;-5.652;2023-04-22T04:44:26;18.12;;;12.70;;
69414;SDS011;56608;43.530;-5.652;2023-04-22T04:45:28;19.00;;;12.30;;
69414;SDS011;56608;43.530;-5.652;2023-04-22T04:46:29;18.65;;;12.65;;
69414;SDS011;56608;43.530;-5.652;2023-04-22T04:47:32;19.45;;;12.60;;
69414;SDS011;56608;43.530;-5.652;2023-04-22T04:48:33;21.05;;;13.00;;
69414;SDS011;56608;43.530;-5.652;2023-04-22T04:49:35;19.75;;;13.70;;
69414;SDS011;56608;43.530;-5.652;2023-04-22T04:50:40;20.27;;;12.85;;
69414;SDS011;56608;43.530;-5.652;2023-04-22T04:51:42;23.95;;;13.65;;
69414;SDS011;56608;43.530;-5.652;2023-04-22T04:52:42;21.10;;;13.20;;
69414;SDS011;56608;43.530;-5.652;2023-04-22T04:53:44;22.50;;;13.20;;
69414;SDS011;56608;43.530;-5.652;2023-04-22T04:54:45;19.40;;;13.20;;
69414;SDS011;56608;43.530;-5.652;2023-04-22T04:55:47;19.27;;;13.88;;
69414;SDS011;56608;43.530;-5.652;2023-04-22T04:57:50;24.35;;;13.55;;
69414;SDS011;56608;43.530;-5.652;2023-04-22T04:58:51;22.00;;;13.27;;
69414;SDS011;56608;43.530;-5.652;2023-04-22T04:59:52;22.30;;;14.65;;
69414;SDS011;56608;43.530;-5.652;2023-04-22T05:00:54;22.77;;;14.07;;
69414;SDS011;56608;43.530;-5.652;2023-04-22T05:01:55;22.23;;;14.80;;
69414;SDS011;56608;43.530;-5.652;2023-04-22T05:02:56;28.45;;;15.15;;
69414;SDS011;56608;43.530;-5.652;2023-04-22T05:03:58;21.87;;;14.50;;
69414;SDS011;56608;43.530;-5.652;2023-04-22T05:04:59;22.40;;;13.90;;
69414;SDS011;56608;43.530;-5.652;2023-04-22T05:06:01;22.27;;;14.30;;
69414;SDS011;56608;43.530;-5.652;2023-04-22T05:07:04;24.87;;;14.68;;
69414;SDS011;56608;43.530;-5.652;2023-04-22T05:08:05;23.00;;;14.90;;
69414;SDS011;56608;43.530;-5.652;2023-04-22T05:09:06;21.55;;;14.65;;
69414;SDS011;56608;43.530;-5.652;2023-04-22T05:10:08;22.00;;;14.43;;
69414;SDS011;56608;43.530;-5.652;2023-04-22T05:11:09;26.00;;;15.73;;
69414;SDS011;56608;43.530;-5.652;2023-04-22T05:12:11;23.00;;;14.87;;
69414;SDS011;56608;43.530;-5.652;2023-04-22T05:13:12;22.65;;;14.93;;
69414;SDS011;56608;43.530;-5.652;2023-04-22T05:14:13;22.85;;;14.80;;
69414;SDS011;56608;43.530;-5.652;2023-04-22T05:15:15;22.77;;;14.87;;
69414;SDS011;56608;43.530;-5.652;2023-04-22T05:16:15;25.97;;;15.40;;
69414;SDS011;56608;43.530;-5.652;2023-04-22T05:17:17;22.33;;;14.82;;
69414;SDS011;56608;43.530;-5.652;2023-04-22T05:18:20;23.17;;;15.25;;
69414;SDS011;56608;43.530;-5.652;2023-04-22T05:19:22;21.75;;;14.50;;
69414;SDS011;56608;43.530;-5.652;2023-04-22T05:20:23;25.73;;;15.70;;
69414;SDS011;56608;43.530;-5.652;2023-04-22T05:21:25;22.52;;;14.80;;
69414;SDS011;56608;43.530;-5.652;2023-04-22T05:22:27;21.87;;;14.32;;
69414;SDS011;56608;43.530;-5.652;2023-04-22T05:23:28;23.50;;;15.00;;
69414;SDS011;56608;43.530;-5.652;2023-04-22T05:24:30;24.65;;;14.90;;
69414;SDS011;56608;43.530;-5.652;2023-04-22T05:25:32;23.38;;;15.23;;
69414;SDS011;56608;43.530;-5.652;2023-04-22T05:26:33;22.75;;;14.13;;
69414;SDS011;56608;43.530;-5.652;2023-04-22T05:27:34;27.67;;;15.32;;
69414;SDS011;56608;43.530;-5.652;2023-04-22T05:28:35;25.10;;;15.37;;
69414;SDS011;56608;43.530;-5.652;2023-04-22T05:29:37;26.45;;;14.80;;
69414;SDS011;56608;43.530;-5.652;2023-04-22T05:30:37;25.42;;;14.65;;
69414;SDS011;56608;43.530;-5.652;2023-04-22T05:31:39;23.60;;;14.65;;
69414;SDS011;56608;43.530;-5.652;2023-04-22T05:32:40;25.12;;;14.82;;
69414;SDS011;56608;43.530;-5.652;2023-04-22T05:33:42;25.77;;;15.38;;
69414;SDS011;56608;43.530;-5.652;2023-04-22T05:34:42;25.00;;;15.40;;
69414;SDS011;56608;43.530;-5.652;2023-04-22T05:35:44;27.17;;;16.15;;
69414;SDS011;56608;43.530;-5.652;2023-04-22T05:36:46;26.87;;;16.07;;
69414;SDS011;56608;43.530;-5.652;2023-04-22T05:37:46;24.60;;;14.95;;
69414;SDS011;56608;43.530;-5.652;2023-04-22T05:38:48;30.12;;;16.37;;
69414;SDS011;56608;43.530;-5.652;2023-04-22T05:39:49;29.63;;;16.67;;
69414;SDS011;56608;43.530;-5.652;2023-04-22T05:40:51;29.45;;;16.00;;
69414;SDS011;56608;43.530;-5.652;2023-04-22T05:41:52;27.35;;;16.12;;
69414;SDS011;56608;43.530;-5.652;2023-04-22T05:42:55;30.33;;;16.05;;
69414;SDS011;56608;43.530;-5.652;2023-04-22T05:43:57;27.17;;;15.52;;
69414;SDS011;56608;43.530;-5.652;2023-04-22T05:44:58;27.77;;;16.15;;
69414;SDS011;56608;43.530;-5.652;2023-04-22T05:45:59;27.85;;;15.85;;
69414;SDS011;56608;43.530;-5.652;2023-04-22T05:47:01;29.75;;;15.88;;
69414;SDS011;56608;43.530;-5.652;2023-04-22T05:48:02;29.10;;;16.80;;
69414;SDS011;56608;43.530;-5.652;2023-04-22T05:49:04;29.42;;;16.90;;
69414;SDS011;56608;43.530;-5.652;2023-04-22T05:50:05;29.37;;;16.05;;
69414;SDS011;56608;43.530;-5.652;2023-04-22T05:51:07;27.98;;;16.15;;
69414;SDS011;56608;43.530;-5.652;2023-04-22T05:52:08;27.30;;;15.50;;
69414;SDS011;56608;43.530;-5.652;2023-04-22T05:53:10;28.65;;;16.58;;
69414;SDS011;56608;43.530;-5.652;2023-04-22T05:54:11;26.35;;;14.85;;
69414;SDS011;56608;43.530;-5.652;2023-04-22T05:55:12;27.48;;;16.20;;
69414;SDS011;56608;43.530;-5.652;2023-04-22T05:56:14;29.27;;;16.25;;
69414;SDS011;56608;43.530;-5.652;2023-04-22T05:57:15;26.73;;;15.48;;
69414;SDS011;56608;43.530;-5.652;2023-04-22T05:58:16;28.55;;;15.80;;
69414;SDS011;56608;43.530;-5.652;2023-04-22T05:59:18;29.95;;;15.80;;
69414;SDS011;56608;43.530;-5.652;2023-04-22T06:00:18;28.20;;;14.90;;
69414;SDS011;56608;43.530;-5.652;2023-04-22T06:01:20;33.75;;;17.60;;
69414;SDS011;56608;43.530;-5.652;2023-04-22T06:02:22;29.40;;;17.20;;
69414;SDS011;56608;43.530;-5.652;2023-04-22T06:03:23;32.33;;;16.85;;
69414;SDS011;56608;43.530;-5.652;2023-04-22T06:04:24;27.55;;;15.27;;
69414;SDS011;56608;43.530;-5.652;2023-04-22T06:05:26;28.50;;;15.50;;
69414;SDS011;56608;43.530;-5.652;2023-04-22T06:07:30;28.58;;;14.95;;
69414;SDS011;56608;43.530;-5.652;2023-04-22T06:08:31;27.52;;;14.75;;
69414;SDS011;56608;43.530;-5.652;2023-04-22T06:09:33;28.48;;;15.85;;
69414;SDS011;56608;43.530;-5.652;2023-04-22T06:10:34;26.90;;;15.40;;
69414;SDS011;56608;43.530;-5.652;2023-04-22T06:11:36;28.48;;;14.93;;
69414;SDS011;56608;43.530;-5.652;2023-04-22T06:12:37;27.67;;;15.07;;
69414;SDS011;56608;43.530;-5.652;2023-04-22T06:13:37;28.50;;;15.40;;
69414;SDS011;56608;43.530;-5.652;2023-04-22T06:14:39;29.05;;;15.43;;
69414;SDS011;56608;43.530;-5.652;2023-04-22T06:15:41;27.83;;;14.18;;
69414;SDS011;56608;43.530;-5.652;2023-04-22T06:16:42;25.83;;;15.50;;